createdAt,value
2022-09-23T00:01:08.884Z,93.00
2022-09-23T00:02:11.402Z,93.10
2022-09-23T00:03:14.401Z,93.10
2022-09-23T00:04:16.362Z,93.30
2022-09-23T00:05:18.742Z,93.30
2022-09-23T00:06:22.809Z,93.30
2022-09-23T00:07:24.703Z,93.30
2022-09-23T00:08:26.633Z,93.30
2022-09-23T00:09:28.609Z,93.40
2022-09-23T00:10:33.725Z,93.40
2022-09-23T00:11:35.524Z,93.50
2022-09-23T00:12:37.349Z,93.50
2022-09-23T00:13:40.734Z,93.50
2022-09-23T00:14:42.620Z,93.50
2022-09-23T00:15:44.539Z,93.50
2022-09-23T00:16:46.379Z,93.50
2022-09-23T00:17:48.340Z,93.50
2022-09-23T00:18:50.540Z,93.50
2022-09-23T00:19:52.381Z,93.60
2022-09-23T00:20:54.248Z,93.60
2022-09-23T00:21:59.235Z,94.10
2022-09-23T00:23:01.427Z,93.70
2022-09-23T00:24:04.047Z,93.70
2022-09-23T00:25:07.996Z,93.70
2022-09-23T00:26:12.846Z,93.80
2022-09-23T00:27:14.763Z,93.80
2022-09-23T00:28:16.569Z,93.80
2022-09-23T00:29:18.976Z,93.80
2022-09-23T00:30:20.891Z,93.80
2022-09-23T00:31:26.153Z,93.90
2022-09-23T00:32:28.161Z,93.90
2022-09-23T00:33:29.965Z,93.90
2022-09-23T00:34:31.896Z,93.90
2022-09-23T00:35:33.708Z,93.90
2022-09-23T00:36:35.726Z,93.90
2022-09-23T00:37:37.740Z,93.90
2022-09-23T00:38:39.517Z,93.90
2022-09-23T00:39:41.344Z,93.90
2022-09-23T00:40:44.944Z,93.90
2022-09-23T00:41:46.842Z,93.90
2022-09-23T00:42:51.452Z,93.90
2022-09-23T00:43:56.840Z,93.90
2022-09-23T00:45:00.404Z,93.90
2022-09-23T00:46:02.505Z,93.90
2022-09-23T00:47:04.488Z,94.00
2022-09-23T00:48:11.462Z,94.10
2022-09-23T00:49:19.136Z,94.00
2022-09-23T00:50:32.196Z,94.00
2022-09-23T00:51:39.576Z,94.00
2022-09-23T00:52:41.459Z,94.00
2022-09-23T00:53:44.442Z,94.00
2022-09-23T00:54:47.696Z,94.00
2022-09-23T00:55:52.663Z,94.10
2022-09-23T00:56:56.734Z,94.10
2022-09-23T00:58:01.289Z,94.10
2022-09-23T00:59:03.672Z,94.10
2022-09-23T01:00:07.577Z,94.10
2022-09-23T01:01:10.774Z,94.10
2022-09-23T01:02:14.449Z,94.10
2022-09-23T01:03:16.302Z,94.00
2022-09-23T01:04:19.393Z,94.00
2022-09-23T01:05:21.656Z,94.00
2022-09-23T01:06:23.546Z,94.00
2022-09-23T01:07:25.354Z,94.00
2022-09-23T01:08:28.083Z,94.00
2022-09-23T01:09:30.124Z,94.00
2022-09-23T01:10:59.587Z,94.00
2022-09-23T01:12:16.119Z,94.10
2022-09-23T01:13:34.424Z,94.10
2022-09-23T01:14:53.253Z,94.10
2022-09-23T01:16:12.281Z,94.10
2022-09-23T01:17:31.678Z,94.10
2022-09-23T01:18:47.035Z,94.00
2022-09-23T01:20:29.856Z,94.10
2022-09-23T01:21:57.278Z,94.00
2022-09-23T01:23:12.973Z,94.00
2022-09-23T01:24:46.773Z,94.00
2022-09-23T01:26:16.380Z,94.10
2022-09-23T01:27:41.564Z,94.10
2022-09-23T01:28:46.453Z,94.10
2022-09-23T01:30:02.900Z,94.10
2022-09-23T01:31:10.827Z,94.20
2022-09-23T01:32:18.505Z,94.10
2022-09-23T01:33:45.321Z,94.20
2022-09-23T01:35:07.038Z,94.10
2022-09-23T01:36:09.547Z,94.20
2022-09-23T01:37:25.140Z,94.20
2022-09-23T01:38:45.210Z,94.30
2022-09-23T01:40:18.154Z,94.30
2022-09-23T01:41:32.672Z,94.30
2022-09-23T01:42:53.948Z,94.30
2022-09-23T01:44:09.810Z,94.40
2022-09-23T01:45:25.193Z,94.40
2022-09-23T01:46:41.227Z,94.40
2022-09-23T01:47:52.199Z,94.90
2022-09-23T01:49:06.832Z,94.50
2022-09-23T01:50:35.026Z,94.50
2022-09-23T01:51:41.500Z,94.50
2022-09-23T01:52:47.430Z,94.50
2022-09-23T01:54:00.656Z,94.50
2022-09-23T01:55:39.500Z,94.50
2022-09-23T01:56:58.986Z,94.60
2022-09-23T01:58:06.092Z,94.60
2022-09-23T01:59:22.870Z,94.70
2022-09-23T02:00:26.511Z,94.70
2022-09-23T02:01:48.428Z,94.70
2022-09-23T02:02:57.651Z,94.70
2022-09-23T02:04:09.475Z,94.80
2022-09-23T02:05:18.380Z,94.80
2022-09-23T02:06:37.089Z,94.80
2022-09-23T02:07:55.247Z,94.90
2022-09-23T02:09:10.054Z,94.80
2022-09-23T02:10:25.255Z,94.90
2022-09-23T02:11:28.116Z,94.90
2022-09-23T02:12:35.052Z,94.90
2022-09-23T02:14:01.014Z,94.90
2022-09-23T02:15:08.441Z,94.90
2022-09-23T02:16:32.053Z,95.00
2022-09-23T02:18:02.480Z,95.00
2022-09-23T02:19:13.294Z,95.00
2022-09-23T02:20:21.014Z,95.00
2022-09-23T02:21:27.543Z,95.00
2022-09-23T02:23:10.040Z,95.00
2022-09-23T02:24:20.955Z,94.90
2022-09-23T02:25:29.135Z,95.00
2022-09-23T02:26:35.664Z,95.00
2022-09-23T02:27:57.717Z,95.10
2022-09-23T02:29:14.275Z,95.00
2022-09-23T02:30:21.230Z,95.10
2022-09-23T02:31:43.507Z,95.10
2022-09-23T02:32:59.730Z,95.10
2022-09-23T02:34:27.886Z,95.10
2022-09-23T02:35:45.112Z,95.10
2022-09-23T02:36:57.977Z,95.10
2022-09-23T02:38:18.253Z,95.10
2022-09-23T02:39:28.112Z,95.00
2022-09-23T02:40:57.646Z,95.00
2022-09-23T02:42:10.005Z,95.10
2022-09-23T02:43:28.104Z,95.10
2022-09-23T02:44:32.733Z,95.20
2022-09-23T02:45:35.532Z,95.10
2022-09-23T02:46:38.319Z,95.20
2022-09-23T02:47:44.137Z,95.20
2022-09-23T02:48:56.906Z,95.20
2022-09-23T02:49:58.918Z,95.20
2022-09-23T02:51:03.628Z,95.30
2022-09-23T02:52:07.905Z,95.30
2022-09-23T02:53:09.837Z,95.30
2022-09-23T02:54:19.339Z,95.30
2022-09-23T02:55:24.494Z,95.30
2022-09-23T02:56:26.299Z,95.30
2022-09-23T02:57:28.395Z,95.30
2022-09-23T02:58:30.399Z,95.40
2022-09-23T02:59:33.963Z,95.40
2022-09-23T03:00:47.050Z,95.30
2022-09-23T03:02:09.918Z,95.30
2022-09-23T03:03:28.870Z,95.30
2022-09-23T03:04:50.517Z,95.30
2022-09-23T03:05:58.794Z,95.30
2022-09-23T03:07:15.554Z,95.30
2022-09-23T03:08:44.827Z,95.30
2022-09-23T03:10:17.637Z,95.30
2022-09-23T03:11:21.684Z,95.30
2022-09-23T03:12:31.806Z,95.30
2022-09-23T03:13:47.015Z,95.30
2022-09-23T03:14:59.200Z,95.20
2022-09-23T03:16:21.075Z,95.30
2022-09-23T03:17:32.786Z,95.30
2022-09-23T03:18:51.979Z,95.30
2022-09-23T03:20:00.232Z,95.30
2022-09-23T03:21:11.386Z,95.30
2022-09-23T03:22:26.140Z,95.30
2022-09-23T03:23:34.683Z,95.30
2022-09-23T03:24:39.535Z,95.30
2022-09-23T03:25:45.786Z,95.30
2022-09-23T03:26:48.988Z,95.40
2022-09-23T03:27:54.086Z,95.40
2022-09-23T03:28:56.455Z,95.40
2022-09-23T03:29:59.231Z,95.90
2022-09-23T03:31:01.139Z,95.40
2022-09-23T03:32:06.988Z,95.40
2022-09-23T03:33:13.182Z,95.40
2022-09-23T03:34:21.294Z,95.30
2022-09-23T03:35:29.545Z,95.20
2022-09-23T03:36:54.027Z,95.20
2022-09-23T03:38:07.161Z,95.20
2022-09-23T03:39:12.967Z,95.20
2022-09-23T03:40:42.023Z,95.20
2022-09-23T03:41:50.927Z,95.10
2022-09-23T03:42:56.198Z,95.20
2022-09-23T03:43:59.836Z,95.20
2022-09-23T03:45:09.030Z,95.20
2022-09-23T03:46:11.129Z,95.20
2022-09-23T03:47:17.356Z,95.10
2022-09-23T03:48:21.646Z,95.20
2022-09-23T03:49:30.021Z,95.10
2022-09-23T03:50:31.864Z,95.10
2022-09-23T03:51:33.746Z,95.10
2022-09-23T03:52:35.594Z,95.00
2022-09-23T03:53:37.676Z,95.00
2022-09-23T03:54:39.418Z,94.90
2022-09-23T03:55:41.202Z,94.90
2022-09-23T03:56:44.145Z,94.90
2022-09-23T03:57:46.344Z,94.80
2022-09-23T03:58:49.258Z,94.90
2022-09-23T03:59:51.836Z,94.90
2022-09-23T04:00:53.968Z,94.90
2022-09-23T04:01:56.147Z,94.90
2022-09-23T04:02:57.985Z,94.90
2022-09-23T04:04:00.274Z,94.80
2022-09-23T04:05:02.372Z,94.80
2022-09-23T04:06:04.170Z,94.90
2022-09-23T04:07:06.092Z,94.90
2022-09-23T04:08:08.055Z,94.90
2022-09-23T04:09:09.851Z,94.90
2022-09-23T04:10:11.617Z,94.90
2022-09-23T04:11:13.433Z,95.00
2022-09-23T04:12:16.791Z,95.00
2022-09-23T04:13:18.547Z,95.00
2022-09-23T04:14:21.870Z,95.00
2022-09-23T04:15:23.762Z,95.00
2022-09-23T04:16:26.081Z,95.00
2022-09-23T04:17:28.028Z,95.00
2022-09-23T04:18:29.774Z,95.00
2022-09-23T04:19:31.599Z,95.00
2022-09-23T04:20:33.528Z,95.00
2022-09-23T04:21:35.717Z,95.00
2022-09-23T04:22:38.726Z,95.00
2022-09-23T04:23:40.463Z,95.10
2022-09-23T04:24:42.244Z,95.00
2022-09-23T04:25:47.504Z,95.10
2022-09-23T04:26:54.016Z,95.10
2022-09-23T04:27:55.946Z,95.00
2022-09-23T04:28:58.290Z,95.40
2022-09-23T04:30:00.117Z,95.00
2022-09-23T04:31:09.379Z,95.10
2022-09-23T04:32:11.392Z,95.60
2022-09-23T04:33:13.895Z,95.10
2022-09-23T04:34:17.501Z,95.20
2022-09-23T04:35:19.350Z,95.10
2022-09-23T04:36:21.941Z,95.10
2022-09-23T04:37:23.695Z,95.20
2022-09-23T04:38:25.613Z,95.30
2022-09-23T04:39:27.549Z,95.30
2022-09-23T04:40:29.356Z,95.30
2022-09-23T04:41:31.359Z,95.70
2022-09-23T04:42:33.341Z,95.30
2022-09-23T04:43:35.134Z,95.20
2022-09-23T04:44:38.901Z,95.30
2022-09-23T04:45:40.811Z,95.30
2022-09-23T04:46:43.840Z,95.30
2022-09-23T04:47:47.102Z,95.30
2022-09-23T04:48:48.957Z,95.30
2022-09-23T04:49:50.705Z,95.40
2022-09-23T04:50:52.734Z,95.40
2022-09-23T04:51:55.159Z,95.40
2022-09-23T04:52:57.040Z,95.40
2022-09-23T04:53:59.141Z,95.40
2022-09-23T04:55:01.668Z,95.40
2022-09-23T04:56:10.216Z,95.40
2022-09-23T04:57:12.240Z,95.50
2022-09-23T04:58:15.468Z,95.40
2022-09-23T04:59:17.279Z,95.40
2022-09-23T05:00:19.179Z,95.40
2022-09-23T05:01:27.158Z,95.40
2022-09-23T05:02:29.101Z,95.40
2022-09-23T05:03:34.257Z,95.40
2022-09-23T05:04:36.163Z,95.50
2022-09-23T05:05:37.932Z,95.40
2022-09-23T05:06:40.018Z,95.50
2022-09-23T05:07:41.782Z,95.50
2022-09-23T05:08:53.761Z,95.50
2022-09-23T05:09:55.810Z,95.40
2022-09-23T05:11:02.132Z,95.40
2022-09-23T05:12:04.246Z,95.50
2022-09-23T05:13:06.155Z,95.50
2022-09-23T05:14:07.966Z,95.50
2022-09-23T05:15:10.030Z,95.50
2022-09-23T05:16:15.730Z,95.50
2022-09-23T05:17:17.610Z,95.50
2022-09-23T05:18:20.923Z,95.50
2022-09-23T05:19:22.935Z,95.40
2022-09-23T05:20:25.049Z,95.40
2022-09-23T05:21:29.114Z,95.40
2022-09-23T05:22:31.117Z,95.40
2022-09-23T05:23:33.651Z,95.40
2022-09-23T05:24:35.479Z,95.50
2022-09-23T05:25:38.462Z,95.40
2022-09-23T05:26:40.618Z,95.40
2022-09-23T05:27:42.338Z,95.40
2022-09-23T05:28:44.334Z,95.30
2022-09-23T05:29:47.520Z,95.80
2022-09-23T05:30:49.275Z,95.40
2022-09-23T05:31:51.246Z,95.40
2022-09-23T05:32:53.210Z,95.30
2022-09-23T05:34:00.130Z,95.20
2022-09-23T05:35:02.617Z,95.20
2022-09-23T05:36:05.293Z,95.10
2022-09-23T05:37:07.226Z,95.00
2022-09-23T05:38:09.696Z,95.00
2022-09-23T05:39:11.550Z,94.90
2022-09-23T05:40:15.633Z,94.90
2022-09-23T05:41:19.553Z,94.90
2022-09-23T05:42:21.394Z,94.90
2022-09-23T05:43:23.646Z,94.90
2022-09-23T05:44:25.685Z,94.90
2022-09-23T05:45:27.617Z,94.90
2022-09-23T05:46:31.131Z,94.80
2022-09-23T05:47:32.935Z,94.80
2022-09-23T05:48:35.829Z,94.80
2022-09-23T05:49:55.614Z,94.70
2022-09-23T05:51:00.038Z,94.70
2022-09-23T05:52:02.527Z,94.70
2022-09-23T05:53:04.267Z,94.70
2022-09-23T05:54:06.254Z,94.70
2022-09-23T05:55:08.390Z,94.70
2022-09-23T05:56:10.342Z,94.70
2022-09-23T05:57:12.075Z,94.80
2022-09-23T05:58:14.154Z,94.80
2022-09-23T05:59:15.887Z,94.80
2022-09-23T06:00:18.713Z,94.80
2022-09-23T06:01:25.259Z,95.30
2022-09-23T06:02:27.121Z,94.80
2022-09-23T06:03:28.943Z,94.80
2022-09-23T06:04:31.354Z,94.70
2022-09-23T06:05:33.443Z,94.60
2022-09-23T06:06:38.517Z,94.60
2022-09-23T06:07:40.334Z,94.50
2022-09-23T06:08:42.548Z,94.50
2022-09-23T06:09:44.398Z,94.50
2022-09-23T06:10:53.501Z,94.50
2022-09-23T06:11:56.262Z,94.50
2022-09-23T06:12:58.101Z,94.50
2022-09-23T06:14:01.182Z,94.40
2022-09-23T06:15:03.362Z,94.40
2022-09-23T06:16:08.459Z,94.40
2022-09-23T06:17:10.193Z,94.50
2022-09-23T06:18:12.632Z,94.60
2022-09-23T06:19:14.538Z,94.50
2022-09-23T06:20:19.304Z,94.40
2022-09-23T06:21:21.239Z,94.50
2022-09-23T06:22:25.048Z,94.40
2022-09-23T06:23:26.851Z,94.30
2022-09-23T06:24:31.291Z,94.30
2022-09-23T06:25:34.579Z,94.40
2022-09-23T06:26:37.937Z,94.30
2022-09-23T06:27:39.772Z,94.30
2022-09-23T06:28:43.172Z,94.30
2022-09-23T06:29:44.890Z,94.40
2022-09-23T06:30:47.196Z,94.40
2022-09-23T06:31:51.858Z,94.40
2022-09-23T06:32:56.219Z,94.30
2022-09-23T06:34:10.044Z,94.40
2022-09-23T06:35:25.703Z,94.30
2022-09-23T06:36:40.932Z,94.30
2022-09-23T06:37:44.885Z,94.40
2022-09-23T06:38:49.345Z,94.50
2022-09-23T06:39:51.503Z,94.50
2022-09-23T06:40:55.746Z,95.00
2022-09-23T06:41:57.448Z,94.50
2022-09-23T06:43:02.565Z,94.50
2022-09-23T06:44:04.552Z,94.50
2022-09-23T06:45:07.268Z,94.60
2022-09-23T06:46:11.298Z,94.70
2022-09-23T06:47:13.290Z,94.70
2022-09-23T06:48:15.093Z,94.60
2022-09-23T06:49:16.923Z,94.60
2022-09-23T06:50:18.958Z,94.60
2022-09-23T06:51:21.786Z,94.50
2022-09-23T06:52:23.586Z,94.60
2022-09-23T06:53:25.925Z,94.70
2022-09-23T06:54:29.113Z,94.70
2022-09-23T06:55:30.929Z,94.70
2022-09-23T06:56:38.003Z,94.70
2022-09-23T06:57:41.556Z,94.60
2022-09-23T06:58:43.568Z,94.50
2022-09-23T06:59:45.518Z,94.40
2022-09-23T07:00:47.471Z,94.40
2022-09-23T07:01:50.653Z,94.40
2022-09-23T07:02:54.784Z,94.30
2022-09-23T07:03:56.766Z,94.20
2022-09-23T07:04:58.668Z,94.10
2022-09-23T07:06:01.227Z,94.00
2022-09-23T07:07:03.548Z,93.90
2022-09-23T07:08:11.934Z,94.00
2022-09-23T07:09:13.759Z,93.90
2022-09-23T07:10:15.853Z,93.80
2022-09-23T07:11:20.222Z,93.80
2022-09-23T07:12:21.975Z,93.70
2022-09-23T07:13:24.482Z,93.70
2022-09-23T07:14:26.963Z,93.80
2022-09-23T07:15:29.555Z,93.70
2022-09-23T07:16:32.829Z,93.70
2022-09-23T07:17:35.051Z,93.70
2022-09-23T07:18:37.532Z,93.70
2022-09-23T07:19:39.688Z,93.70
2022-09-23T07:20:41.496Z,93.60
2022-09-23T07:21:43.308Z,93.60
2022-09-23T07:22:52.579Z,93.60
2022-09-23T07:23:55.329Z,93.50
2022-09-23T07:24:57.130Z,93.40
2022-09-23T07:25:59.423Z,93.30
2022-09-23T07:27:02.264Z,93.20
2022-09-23T07:28:04.356Z,93.30
2022-09-23T07:29:06.642Z,93.20
2022-09-23T07:30:17.248Z,93.20
2022-09-23T07:31:32.833Z,93.20
2022-09-23T07:32:47.719Z,93.20
2022-09-23T07:33:56.856Z,93.30
2022-09-23T07:34:58.789Z,93.40
2022-09-23T07:36:05.491Z,93.40
2022-09-23T07:37:07.506Z,93.30
2022-09-23T07:38:10.881Z,93.30
2022-09-23T07:39:13.547Z,93.20
2022-09-23T07:40:15.408Z,93.20
2022-09-23T07:41:19.066Z,92.70
2022-09-23T07:42:20.871Z,92.60
2022-09-23T07:43:22.730Z,92.70
2022-09-23T07:44:26.330Z,92.80
2022-09-23T07:45:34.045Z,92.80
2022-09-23T07:46:36.978Z,92.80
2022-09-23T07:47:40.129Z,92.70
2022-09-23T07:48:42.888Z,92.30
2022-09-23T07:49:44.639Z,92.20
2022-09-23T07:50:46.979Z,92.40
2022-09-23T07:51:48.808Z,92.20
2022-09-23T07:52:53.094Z,92.10
2022-09-23T07:53:56.612Z,92.10
2022-09-23T07:54:59.816Z,92.20
2022-09-23T07:56:04.476Z,92.20
2022-09-23T07:57:06.560Z,92.30
2022-09-23T07:58:08.487Z,92.10
2022-09-23T07:59:18.331Z,92.10
2022-09-23T08:00:21.154Z,92.10
2022-09-23T08:01:22.958Z,92.10
2022-09-23T08:02:25.005Z,92.10
2022-09-23T08:03:26.980Z,92.00
2022-09-23T08:04:31.230Z,92.20
2022-09-23T08:05:33.224Z,92.20
2022-09-23T08:06:35.845Z,92.10
2022-09-23T08:07:37.810Z,92.00
2022-09-23T08:08:43.596Z,91.70
2022-09-23T08:09:45.712Z,91.70
2022-09-23T08:10:47.955Z,91.60
2022-09-23T08:11:52.645Z,91.20
2022-09-23T08:12:54.606Z,91.00
2022-09-23T08:13:57.548Z,91.10
2022-09-23T08:15:00.454Z,91.10
2022-09-23T08:16:02.453Z,91.00
2022-09-23T08:17:05.495Z,90.80
2022-09-23T08:18:07.327Z,90.70
2022-09-23T08:19:09.308Z,90.30
2022-09-23T08:20:31.419Z,90.40
2022-09-23T08:21:33.537Z,90.70
2022-09-23T08:22:35.376Z,90.30
2022-09-23T08:23:37.133Z,90.10
2022-09-23T08:24:39.030Z,89.80
2022-09-23T08:25:47.857Z,89.40
2022-09-23T08:26:51.359Z,88.70
2022-09-23T08:27:53.262Z,88.90
2022-09-23T08:28:56.656Z,87.80
2022-09-23T08:29:58.743Z,88.50
2022-09-23T08:31:01.242Z,86.80
2022-09-23T08:32:03.286Z,86.50
2022-09-23T08:33:05.151Z,86.10
2022-09-23T08:34:08.023Z,86.60
2022-09-23T08:35:10.460Z,86.60
2022-09-23T08:36:12.290Z,87.20
2022-09-23T08:37:14.096Z,86.50
2022-09-23T08:38:15.918Z,87.00
2022-09-23T08:39:19.184Z,86.30
2022-09-23T08:40:21.156Z,85.40
2022-09-23T08:41:41.708Z,86.50
2022-09-23T08:42:45.533Z,85.50
2022-09-23T08:43:54.130Z,86.50
2022-09-23T08:45:01.960Z,86.70
2022-09-23T08:46:10.732Z,86.50
2022-09-23T08:47:12.453Z,85.80
2022-09-23T08:48:20.791Z,85.60
2022-09-23T08:49:31.055Z,85.20
2022-09-23T08:50:53.938Z,84.40
2022-09-23T08:51:57.037Z,84.60
2022-09-23T08:53:07.639Z,84.60
2022-09-23T08:54:11.622Z,84.10
2022-09-23T08:55:14.991Z,84.50
2022-09-23T08:56:20.331Z,84.60
2022-09-23T08:57:41.662Z,83.60
2022-09-23T08:59:12.244Z,82.80
2022-09-23T09:00:20.158Z,83.90
2022-09-23T09:02:00.134Z,83.00
2022-09-23T09:03:18.370Z,83.70
2022-09-23T09:04:41.145Z,84.50
2022-09-23T09:05:50.884Z,83.90
2022-09-23T09:07:35.310Z,83.00
2022-09-23T09:08:36.886Z,81.50
2022-09-23T09:09:48.812Z,82.60
2022-09-23T09:10:55.168Z,82.80
2022-09-23T09:12:18.381Z,82.00
2022-09-23T09:13:32.648Z,82.10
2022-09-23T09:14:43.198Z,82.50
2022-09-23T09:15:59.183Z,82.00
2022-09-23T09:17:45.887Z,82.10
2022-09-23T09:19:03.393Z,82.10
2022-09-23T09:20:32.463Z,82.40
2022-09-23T09:21:40.191Z,82.90
2022-09-23T09:22:57.439Z,83.60
2022-09-23T09:24:00.363Z,82.20
2022-09-23T09:25:24.157Z,80.10
2022-09-23T09:26:34.579Z,80.70
2022-09-23T09:27:40.567Z,81.30
2022-09-23T09:28:54.775Z,79.70
2022-09-23T09:30:04.206Z,78.80
2022-09-23T09:31:40.300Z,78.00
2022-09-23T09:32:49.087Z,78.20
2022-09-23T09:33:58.856Z,78.10
2022-09-23T09:35:09.009Z,78.60
2022-09-23T09:37:07.271Z,79.00
2022-09-23T09:38:11.283Z,79.80
2022-09-23T09:39:15.858Z,78.90
2022-09-23T09:40:18.043Z,78.90
2022-09-23T09:41:24.702Z,78.20
2022-09-23T09:42:39.210Z,78.50
2022-09-23T09:43:44.199Z,79.20
2022-09-23T09:45:20.052Z,79.70
2022-09-23T09:46:45.212Z,79.50
2022-09-23T09:48:17.656Z,79.60
2022-09-23T09:49:45.178Z,80.70
2022-09-23T09:50:56.387Z,79.90
2022-09-23T09:52:12.200Z,80.60
2022-09-23T09:53:27.183Z,81.00
2022-09-23T09:54:29.958Z,80.90
2022-09-23T09:55:31.965Z,80.60
2022-09-23T09:56:36.239Z,79.80
2022-09-23T09:57:49.314Z,79.60
2022-09-23T09:59:13.691Z,80.00
2022-09-23T10:00:36.057Z,80.60
2022-09-23T10:01:39.561Z,80.40
2022-09-23T10:02:41.635Z,80.80
2022-09-23T10:03:44.760Z,80.60
2022-09-23T10:04:46.658Z,81.00
2022-09-23T10:05:52.230Z,80.50
2022-09-23T10:07:06.250Z,79.70
2022-09-23T10:08:39.475Z,79.10
2022-09-23T10:09:50.364Z,79.20
2022-09-23T10:11:11.425Z,79.20
2022-09-23T10:12:18.605Z,78.40
2022-09-23T10:13:24.421Z,79.10
2022-09-23T10:14:26.738Z,78.90
2022-09-23T10:15:44.445Z,78.80
2022-09-23T10:17:02.155Z,76.50
2022-09-23T10:18:04.311Z,76.20
2022-09-23T10:19:27.662Z,75.60
2022-09-23T10:20:39.051Z,75.40
2022-09-23T10:21:41.606Z,74.40
2022-09-23T10:22:43.773Z,74.10
2022-09-23T10:23:48.557Z,72.60
2022-09-23T10:24:54.048Z,73.30
2022-09-23T10:26:01.576Z,72.10
2022-09-23T10:27:09.709Z,71.70
2022-09-23T10:28:32.153Z,71.10
2022-09-23T10:30:01.668Z,71.80
2022-09-23T10:31:12.932Z,71.90
2022-09-23T10:32:45.000Z,71.10
2022-09-23T10:34:12.079Z,70.90
2022-09-23T10:35:21.039Z,67.70
2022-09-23T10:36:23.254Z,69.00
2022-09-23T10:37:30.772Z,68.20
2022-09-23T10:38:32.705Z,68.60
2022-09-23T10:39:53.173Z,68.40
2022-09-23T10:41:14.951Z,69.90
2022-09-23T10:42:48.087Z,70.60
2022-09-23T10:45:03.854Z,70.90
2022-09-23T10:46:36.940Z,70.80
2022-09-23T10:48:19.688Z,70.90
2022-09-23T10:49:40.674Z,71.60
2022-09-23T10:50:48.859Z,72.60
2022-09-23T10:52:09.360Z,72.80
2022-09-23T10:53:23.004Z,73.20
2022-09-23T10:54:40.269Z,73.40
2022-09-23T10:56:22.925Z,73.60
2022-09-23T10:57:42.903Z,74.40
2022-09-23T10:58:58.812Z,74.50
2022-09-23T11:00:32.772Z,74.60
2022-09-23T11:01:37.466Z,74.60
2022-09-23T11:02:58.663Z,75.50
2022-09-23T11:04:37.682Z,76.10
2022-09-23T11:06:11.489Z,76.50
2022-09-23T11:07:38.794Z,75.80
2022-09-23T11:09:27.209Z,75.80
2022-09-23T11:10:46.315Z,76.90
2022-09-23T11:11:54.987Z,77.00
2022-09-23T11:13:23.262Z,77.10
2022-09-23T11:14:32.492Z,76.90
2022-09-23T11:15:55.418Z,77.80
2022-09-23T11:17:37.556Z,75.60
2022-09-23T11:19:03.148Z,75.40
2022-09-23T11:20:31.890Z,76.70
2022-09-23T11:22:05.603Z,76.90
2022-09-23T11:23:22.182Z,77.40
2022-09-23T11:24:35.821Z,77.20
2022-09-23T11:26:00.939Z,75.80
2022-09-23T11:27:27.010Z,76.70
2022-09-23T11:28:47.276Z,77.20
2022-09-23T11:30:03.824Z,77.00
2022-09-23T11:31:21.365Z,77.10
2022-09-23T11:32:44.108Z,77.70
2022-09-23T11:33:57.966Z,77.80
2022-09-23T11:35:11.515Z,74.80
2022-09-23T11:36:28.047Z,75.60
2022-09-23T11:37:36.145Z,75.10
2022-09-23T11:38:43.036Z,74.70
2022-09-23T11:40:00.153Z,75.20
2022-09-23T11:41:14.555Z,75.00
2022-09-23T11:42:40.617Z,72.80
2022-09-23T11:43:44.583Z,70.00
2022-09-23T11:45:02.712Z,70.80
2022-09-23T11:46:14.255Z,70.40
2022-09-23T11:47:42.412Z,69.40
2022-09-23T11:49:03.240Z,69.60
2022-09-23T11:50:29.927Z,70.00
2022-09-23T11:51:36.677Z,69.30
2022-09-23T11:52:48.111Z,69.60
2022-09-23T11:54:20.389Z,68.60
2022-09-23T11:55:33.117Z,69.50
2022-09-23T11:56:47.010Z,69.00
2022-09-23T11:57:54.385Z,68.90
2022-09-23T11:59:22.020Z,69.80
2022-09-23T12:00:37.085Z,68.00
2022-09-23T12:02:14.307Z,68.30
2022-09-23T12:03:48.450Z,67.80
2022-09-23T12:05:18.419Z,66.60
2022-09-23T12:06:26.957Z,68.40
2022-09-23T12:08:09.350Z,68.00
2022-09-23T12:09:56.788Z,66.60
2022-09-23T12:11:26.217Z,65.90
2022-09-23T12:12:48.048Z,67.50
2022-09-23T12:14:12.468Z,67.60
2022-09-23T12:15:36.178Z,67.50
2022-09-23T12:17:08.983Z,67.20
2022-09-23T12:18:49.661Z,67.20
2022-09-23T12:20:05.510Z,64.20
2022-09-23T12:21:33.004Z,65.60
2022-09-23T12:23:04.997Z,64.70
2022-09-23T12:24:31.514Z,66.30
2022-09-23T12:25:46.535Z,67.40
2022-09-23T12:26:56.776Z,67.30
2022-09-23T12:28:04.886Z,66.50
2022-09-23T12:29:11.067Z,64.70
2022-09-23T12:30:22.830Z,66.70
2022-09-23T12:31:33.926Z,66.50
2022-09-23T12:32:39.795Z,68.90
2022-09-23T12:33:53.811Z,68.90
2022-09-23T12:34:57.373Z,68.50
2022-09-23T12:36:12.209Z,68.40
2022-09-23T12:37:22.838Z,68.70
2022-09-23T12:38:43.807Z,69.70
2022-09-23T12:39:47.048Z,69.90
2022-09-23T12:40:49.761Z,70.30
2022-09-23T12:41:59.571Z,69.80
2022-09-23T12:43:02.456Z,70.10
2022-09-23T12:44:36.855Z,70.00
2022-09-23T12:45:40.444Z,66.80
2022-09-23T12:46:46.596Z,69.50
2022-09-23T12:47:48.482Z,68.50
2022-09-23T12:49:00.519Z,69.30
2022-09-23T12:50:02.645Z,70.40
2022-09-23T12:51:05.609Z,70.10
2022-09-23T12:52:17.488Z,68.30
2022-09-23T12:53:34.736Z,69.00
2022-09-23T12:54:38.321Z,70.60
2022-09-23T12:55:40.143Z,69.90
2022-09-23T12:56:43.478Z,69.90
2022-09-23T12:57:45.750Z,69.80
2022-09-23T12:58:47.836Z,70.00
2022-09-23T12:59:55.932Z,70.20
2022-09-23T13:01:18.740Z,68.30
2022-09-23T13:02:28.689Z,65.60
2022-09-23T13:03:49.589Z,66.20
2022-09-23T13:05:42.211Z,67.10
2022-09-23T13:06:53.469Z,66.80
2022-09-23T13:08:04.402Z,64.10
2022-09-23T13:09:20.336Z,63.30
2022-09-23T13:10:29.066Z,62.90
2022-09-23T13:11:33.561Z,62.20
2022-09-23T13:12:39.603Z,62.40
2022-09-23T13:13:44.530Z,63.60
2022-09-23T13:14:49.219Z,61.70
2022-09-23T13:15:52.250Z,62.40
2022-09-23T13:16:57.159Z,64.30
2022-09-23T13:18:23.370Z,64.30
2022-09-23T13:19:28.517Z,64.80
2022-09-23T13:20:37.395Z,65.40
2022-09-23T13:21:45.976Z,65.50
2022-09-23T13:22:53.546Z,66.30
2022-09-23T13:24:13.639Z,66.30
2022-09-23T13:25:40.133Z,66.80
2022-09-23T13:26:51.080Z,66.00
2022-09-23T13:27:58.907Z,65.60
2022-09-23T13:29:03.965Z,65.50
2022-09-23T13:30:25.763Z,64.40
2022-09-23T13:31:28.429Z,64.30
2022-09-23T13:32:38.087Z,63.90
2022-09-23T13:33:42.811Z,65.70
2022-09-23T13:35:01.177Z,65.40
2022-09-23T13:36:04.409Z,65.90
2022-09-23T13:37:23.013Z,66.50
2022-09-23T13:38:28.216Z,67.20
2022-09-23T13:39:30.081Z,67.10
2022-09-23T13:40:33.954Z,66.90
2022-09-23T13:41:37.155Z,65.00
2022-09-23T13:42:40.771Z,63.40
2022-09-23T13:43:50.754Z,63.40
2022-09-23T13:44:59.220Z,62.10
2022-09-23T13:46:05.375Z,62.40
2022-09-23T13:47:14.714Z,62.30
2022-09-23T13:48:16.723Z,63.80
2022-09-23T13:49:34.143Z,65.70
2022-09-23T13:50:40.288Z,64.30
2022-09-23T13:51:45.233Z,64.20
2022-09-23T13:52:55.691Z,65.00
2022-09-23T13:54:00.927Z,64.90
2022-09-23T13:55:04.003Z,66.00
2022-09-23T13:56:14.931Z,65.70
2022-09-23T13:57:35.150Z,65.50
2022-09-23T13:58:37.218Z,64.20
2022-09-23T13:59:42.209Z,64.00
2022-09-23T14:00:45.023Z,63.90
2022-09-23T14:01:47.226Z,63.20
2022-09-23T14:02:49.462Z,64.60
2022-09-23T14:04:28.634Z,63.40
2022-09-23T14:05:35.993Z,62.90
2022-09-23T14:06:41.544Z,62.70
2022-09-23T14:07:44.735Z,64.00
2022-09-23T14:08:50.054Z,64.40
2022-09-23T14:09:55.379Z,65.20
2022-09-23T14:11:07.142Z,66.10
2022-09-23T14:12:11.288Z,66.40
2022-09-23T14:13:25.510Z,66.40
2022-09-23T14:14:30.750Z,67.00
2022-09-23T14:15:37.441Z,64.90
2022-09-23T14:16:41.679Z,65.40
2022-09-23T14:17:49.785Z,65.80
2022-09-23T14:18:55.897Z,66.10
2022-09-23T14:19:57.902Z,65.20
2022-09-23T14:21:00.178Z,64.30
2022-09-23T14:22:02.386Z,65.60
2022-09-23T14:23:12.427Z,66.80
2022-09-23T14:24:23.442Z,65.90
2022-09-23T14:25:25.374Z,65.10
2022-09-23T14:26:27.301Z,65.60
2022-09-23T14:27:33.887Z,66.00
2022-09-23T14:28:36.026Z,67.20
2022-09-23T14:29:40.615Z,67.70
2022-09-23T14:30:44.808Z,68.00
2022-09-23T14:32:16.504Z,68.60
2022-09-23T14:33:25.215Z,67.80
2022-09-23T14:35:00.368Z,69.40
2022-09-23T14:36:07.721Z,69.50
2022-09-23T14:37:37.378Z,70.00
2022-09-23T14:38:51.733Z,70.80
2022-09-23T14:39:57.683Z,71.70
2022-09-23T14:41:16.052Z,72.20
2022-09-23T14:42:20.164Z,72.50
2022-09-23T14:43:29.106Z,72.30
2022-09-23T14:44:33.407Z,72.70
2022-09-23T14:45:41.558Z,72.80
2022-09-23T14:46:56.581Z,72.90
2022-09-23T14:48:19.311Z,71.20
2022-09-23T14:49:21.190Z,70.10
2022-09-23T14:50:43.738Z,71.80
2022-09-23T14:51:45.915Z,73.50
2022-09-23T14:52:51.601Z,73.70
2022-09-23T14:53:53.694Z,74.90